Fredericksburg, IA

2:10 AM CST en Noviembre 27, 2014 (GMT -0600)
Waterloo Municipal | Change Station
CLOSE
Current Station
Aeropuerto
Location: Waterloo,
Altura: 873 ft
Estaciones meteorológicas cercanas

Alt 873 ft 42.55 °N, 92.40 °W | Updated 16 minutes ago

Nublado
Nublado
18 ° F
Sensación térmica 3 ° F
N
17
Viento Variable Viento desde NO
Gusts 24 mph

Hoy
Alta -- | Baja -- ° F
--% Posibilidad de precipitaciones
Ayer
Alta -- | Baja -- ° F
Precip. -- pul
7:15 AM 4:36 PM
Creciente, 27% visible
Presión 30.40 pul
Visibilidad 8.0 Millas
Nubes Nublado 3400 ft
Vientos helados 3 ° F
Punto de rocío 14 ° F
Humedad 84%
Precipitaciones 0.00 pul
Espesor de la nieve No disponible.
UV 0 de una escala de 12
Polen .10 de una escala de 12
Calidad del aire No disponible.
Flu Activity No disponible.
METAR KALO 270754Z 31015G21KT 8SM -SN OVC034 M08/M10 A3035 RMK AO2 SNB49 SLP293 P0000 T10781100

More Conditions Fewer Conditions

Presión 30.40 pul
Visibilidad 8.0 Millas
Nubes Nublado 3400 ft
Vientos helados 3 ° F
Punto de rocío 14 ° F
Humedad 84%
Precipitaciones 0.00 pul
Espesor de la nieve No disponible.
UV 0 de una escala de 12
Polen .10 de una escala de 12
Calidad del aire No disponible.
Flu Activity No disponible.
METAR KALO 270754Z 31015G21KT 8SM -SN OVC034 M08/M10 A3035 RMK AO2 SNB49 SLP293 P0000 T10781100

More Conditions Fewer Conditions

10-Day Weather Forecast

Almanac

Astronomía

Nov. 27, 2014 Salida Puesta
Hora real
Crepúsculo civil
Crepúsculo náutico
Crepúsculo astronómico
Luna
Horas de luz
Horas de luz
Tomorrow will be .
, % of the Moon is Illuminated

Extremos de hoy

Máximos del estado Bajos del estado

Community

WunderPhotos

Upload Photos

1,773,965 ¡fotos cargadas!

WunderBlogs® & News

Nearby

Calidad del aire

  Calidad del aire Índice AQ Contaminante
Not available.

Grosos de nieve

Estación Profundido Altura

Actividad de terremotos

Ciudad Distance Mag. Tiempo y dato
Magnitud mínima muestra es 2,5.

Temperaturas de aguas costeras

Lugar Temperatura

Estaciones meteorológicas cercanas